This is the latest recevied weather packets stored in our database for station/object NZ3C. If no packets are shown the sender has not sent any weather packets the latest 1 day(s).
| Time | Temp. | Humidity | Pressure | Rain* | Wind** | Luminosity | Snow |
|---|---|---|---|---|---|---|---|
| 1778000006 | 27.22° C | 43% | 1018.3 hPa | 0 mm | 2.68 m/s, 158° | 916 W/m² | - |
| 1777999702 | 26.67° C | 45% | 1018.5 hPa | 0 mm | 0.89 m/s, 269° | 877 W/m² | - |
| 1777999399 | 26.67° C | 45% | 1018.5 hPa | 0 mm | 0.89 m/s, 99° | 870 W/m² | - |
| 1777999098 | 26.67° C | 43% | 1018.8 hPa | 0 mm | 0.89 m/s, 293° | 877 W/m² | - |
| 1777998796 | 26.67° C | 45% | 1018.6 hPa | 0 mm | 0.45 m/s, 275° | 870 W/m² | - |
| 1777998494 | 26.67° C | 46% | 1018.8 hPa | 0 mm | 1.34 m/s, 269° | 866 W/m² | - |
| 1777998190 | 26.67° C | 44% | 1018.6 hPa | 0 mm | 0.89 m/s, 69° | 859 W/m² | - |
| 1777997887 | 25.56° C | 46% | 1019.1 hPa | 0 mm | 0.45 m/s, 61° | 864 W/m² | - |
| 1777997584 | 26.11° C | 43% | 1019.1 hPa | 0 mm | 1.79 m/s, 266° | 858 W/m² | - |
| 1777997282 | 25.56° C | 44% | 1019.3 hPa | 0 mm | 1.79 m/s, 304° | 852 W/m² | - |
| 1777996979 | 25.56° C | 47% | 1019.3 hPa | 0 mm | 0.89 m/s, 275° | 848 W/m² | - |
| 1777996676 | 25.56° C | 46% | 1019 hPa | 0 mm | 0.89 m/s, 340° | 844 W/m² | - |
| 1777996371 | 25.56° C | 46% | 1019.4 hPa | 0 mm | 2.68 m/s, 318° | 840 W/m² | - |
| 1777996068 | 25° C | 49% | 1019.1 hPa | 0 mm | 0.45 m/s, 22° | 833 W/m² | - |
| 1777995765 | 25.56° C | 45% | 1019.2 hPa | 0 mm | 1.34 m/s, 125° | 824 W/m² | - |
| 1777995461 | 25.56° C | 48% | 1019.3 hPa | 0 mm | 1.79 m/s, 281° | 818 W/m² | - |
| 1777995158 | 25° C | 48% | 1019.2 hPa | 0 mm | 0.45 m/s, 113° | 809 W/m² | - |
| 1777994856 | 25° C | 48% | 1019.2 hPa | 0 mm | 0.89 m/s, 54° | 800 W/m² | - |
| 1777994552 | 25.56° C | 45% | 1019.2 hPa | 0 mm | 4.02 m/s, 289° | 793 W/m² | - |
| 1777994252 | 25.56° C | 48% | 1019.3 hPa | 0 mm | 0.45 m/s, 86° | 783 W/m² | - |
| 1777993950 | 25° C | 50% | 1019.1 hPa | 0 mm | 0.45 m/s, 280° | 772 W/m² | - |
| 1777993646 | 24.44° C | 52% | 1019.2 hPa | 0 mm | 0.89 m/s, 283° | 762 W/m² | - |
| 1777993343 | 24.44° C | 52% | 1019.4 hPa | 0 mm | 0.89 m/s, 27° | 753 W/m² | - |
| 1777993046 | 25° C | 48% | 1019.3 hPa | 0 mm | 2.24 m/s, 293° | 737 W/m² | - |
| 1777992737 | 24.44° C | 51% | 1019.4 hPa | 0 mm | 0.45 m/s, 120° | 728 W/m² | - |
* Rain latest hour (hover to see other rain measurements)
** Current wind speed in m/s (hover to see current wind gust speed)